Time;durP1;ratioP1;P1;durP2;ratioP2;P2;SDS_P1;SDS_P2;PMS_P1;PMS_P2;Temp;Humidity;BMP_temperature;BMP_pressure;BME280_temperature;BME280_humidity;BME280_pressure;Samples;Min_cycle;Max_cycle;Signal;HPM_P1;HPM_P2
2023/02/10 00:00:42;;;;;;;;;;;;;;;-2.74;71.24;100815.97;5021936;28;19930;-66
2023/02/10 00:03:08;;;;;;;;;;;;;;;-2.67;71.26;100812.63;5006698;28;19937;-66
2023/02/10 00:05:34;;;;;;;;;;;;;;;-2.60;70.97;100817.16;5021462;28;19929;-67
2023/02/10 00:07:59;;;;;;;;;;;;;;;-2.55;69.47;100807.81;5040721;28;20474;-66
2023/02/10 00:10:25;;;;;;;;;;;;;;;-2.67;69.04;100799.22;5023493;28;19929;-67
2023/02/10 00:12:52;;;;;;;;;;;;;;;-2.73;68.97;100811.47;5018551;28;19940;-66
2023/02/10 00:15:18;;;;;;;;;;;;;;;-2.72;68.82;100803.25;5022908;28;19929;-65
2023/02/10 00:17:44;;;;;;;;;;;;;;;-2.72;68.93;100815.81;5022469;28;20388;-66
2023/02/10 00:20:10;;;;;;;;;;;;;;;-2.75;68.96;100800.03;5024685;28;19936;-66
2023/02/10 00:22:35;;;;;;;;;;;;;;;-2.77;68.84;100781.47;5022337;28;19929;-66
2023/02/10 00:25:01;;;;;;;;;;;;;;;-2.72;69.06;100786.34;5024013;28;19933;-66
2023/02/10 00:27:28;;;;;;;;;;;;;;;-2.66;69.13;100790.19;5023188;28;20403;-66
2023/02/10 00:29:56;;;;;;;;;;;;;;;-2.73;69.20;100782.00;5008996;28;19939;-66
2023/02/10 00:32:22;;;;;;;;;;;;;;;-2.68;69.48;100773.44;5022476;28;20913;-66
2023/02/10 00:34:47;;;;;;;;;;;;;;;-2.63;69.39;100758.56;5004883;28;19929;-66
2023/02/10 00:37:13;;;;;;;;;;;;;;;-2.59;69.34;100764.44;5011506;28;19936;-66
2023/02/10 00:39:39;;;;;;;;;;;;;;;-2.55;68.75;100759.59;5023995;28;19975;-67
2023/02/10 00:42:05;;;;;;;;;;;;;;;-2.56;68.22;100758.75;5009690;28;19935;-66
2023/02/10 00:44:30;;;;;;;;;;;;;;;-2.66;68.54;100745.53;5023172;28;20432;-66
2023/02/10 00:46:57;;;;;;;;;;;;;;;-2.64;68.71;100751.53;4988101;28;19929;-66
2023/02/10 00:49:23;;;;;;;;;;;;;;;-2.61;68.39;100745.84;5002925;28;19929;-66
2023/02/10 00:51:49;;;;;;;;;;;;;;;-2.62;67.72;100757.56;4987679;28;20037;-66
2023/02/10 00:54:15;;;;;;;;;;;;;;;-2.70;67.43;100736.16;5017507;28;19961;-66
2023/02/10 00:56:41;;;;;;;;;;;;;;;-2.72;67.26;100743.50;5024287;28;19929;-66
2023/02/10 00:59:06;;;;;;;;;;;;;;;-2.71;67.58;100747.88;5023651;28;19933;-66
2023/02/10 01:01:35;;;;;;;;;;;;;;;-2.69;66.88;100728.94;5014818;28;20466;-66
2023/02/10 01:04:02;;;;;;;;;;;;;;;-2.74;66.99;100727.59;5009284;28;20013;-66
2023/02/10 01:06:27;;;;;;;;;;;;;;;-2.73;67.22;100720.41;5022341;28;20396;-66
2023/02/10 01:08:53;;;;;;;;;;;;;;;-2.79;66.72;100724.59;5025275;28;19956;-66
2023/02/10 01:11:21;;;;;;;;;;;;;;;-2.79;66.98;100702.31;5019793;28;20042;-66
2023/02/10 01:13:47;;;;;;;;;;;;;;;-2.86;66.83;100688.75;5022903;28;19929;-66
2023/02/10 01:16:14;;;;;;;;;;;;;;;-3.00;67.01;100672.31;4997102;28;20434;-66
2023/02/10 01:18:40;;;;;;;;;;;;;;;-2.95;67.22;100695.94;5017331;28;20027;-66
2023/02/10 01:21:08;;;;;;;;;;;;;;;-3.03;67.55;100707.44;5018115;28;20177;-66
2023/02/10 01:23:34;;;;;;;;;;;;;;;-3.00;67.57;100692.91;5003223;28;20355;-66
2023/02/10 01:26:00;;;;;;;;;;;;;;;-3.02;67.54;100701.09;5011595;28;19929;-66
2023/02/10 01:28:25;;;;;;;;;;;;;;;-3.00;67.76;100683.03;5025737;28;20350;-67
2023/02/10 01:30:51;;;;;;;;;;;;;;;-3.02;67.77;100677.00;5024965;28;19941;-67
2023/02/10 01:33:17;;;;;;;;;;;;;;;-3.02;67.78;100676.19;5007329;28;19939;-66
2023/02/10 01:35:42;;;;;;;;;;;;;;;-3.06;67.98;100681.03;5006886;28;19929;-67
2023/02/10 01:38:10;;;;;;;;;;;;;;;-3.09;68.16;100678.69;5022119;28;19929;-66
2023/02/10 01:40:35;;;;;;;;;;;;;;;-3.07;68.39;100674.00;5021743;28;19929;-66
2023/02/10 01:43:01;;;;;;;;;;;;;;;-3.06;68.32;100650.72;5008083;28;19975;-65
2023/02/10 01:45:28;;;;;;;;;;;;;;;-3.03;68.49;100671.84;5002151;28;20315;-67
2023/02/10 01:47:55;;;;;;;;;;;;;;;-3.06;68.44;100658.75;5015333;28;20289;-66
2023/02/10 01:50:22;;;;;;;;;;;;;;;-3.04;68.63;100651.44;5023667;28;19951;-67
2023/02/10 01:52:48;;;;;;;;;;;;;;;-2.97;68.79;100652.44;5020486;28;19935;-66
2023/02/10 01:55:20;;;;;;;;;;;;;;;-2.92;68.56;100655.44;5026721;28;19975;-67
2023/02/10 01:57:48;;;;;;;;;;;;;;;-2.88;68.32;100645.25;5026231;28;20799;-67
2023/02/10 02:00:14;;;;;;;;;;;;;;;-2.89;68.20;100649.78;5024089;28;19987;-67
2023/02/10 02:02:41;;;;;;;;;;;;;;;-2.93;68.56;100648.41;5023792;28;20108;-67
2023/02/10 02:05:17;;;;;;;;;;;;;;;-2.91;68.29;100665.16;5022563;28;19956;-67
2023/02/10 02:07:43;;;;;;;;;;;;;;;-2.96;68.52;100659.47;5025249;28;19929;-67
2023/02/10 02:10:10;;;;;;;;;;;;;;;-2.97;68.66;100644.41;5023257;28;19929;-67
2023/02/10 02:12:41;;;;;;;;;;;;;;;-3.00;69.00;100642.88;5017841;28;19929;-67
2023/02/10 02:15:11;;;;;;;;;;;;;;;-2.92;68.99;100639.38;5026344;28;19949;-67
2023/02/10 02:17:40;;;;;;;;;;;;;;;-2.87;68.67;100644.25;5016435;28;19941;-67
2023/02/10 02:23:14;;;;;;;;;;;;;;;-3.03;69.54;100645.06;5025367;28;19929;-67
2023/02/10 02:25:53;;;;;;;;;;;;;;;-3.05;69.04;100645.22;5026329;28;20388;-67
2023/02/10 02:28:24;;;;;;;;;;;;;;;-3.12;69.33;100622.81;5044237;28;19929;-67
2023/02/10 02:31:07;;;;;;;;;;;;;;;-3.12;69.40;100620.16;5019706;28;19965;-67
2023/02/10 02:33:37;;;;;;;;;;;;;;;-3.11;69.15;100626.31;5007710;28;20278;-67
2023/02/10 02:36:07;;;;;;;;;;;;;;;-3.11;69.02;100610.25;5008639;28;19933;-66
2023/02/10 02:38:37;;;;;;;;;;;;;;;-3.16;69.05;100600.91;5023129;28;19936;-66
2023/02/10 02:41:02;;;;;;;;;;;;;;;-3.18;69.45;100589.53;5028843;28;19929;-66
2023/02/10 02:43:28;;;;;;;;;;;;;;;-3.14;69.23;100596.22;5027968;28;19936;-67
2023/02/10 02:45:58;;;;;;;;;;;;;;;-3.16;69.23;100582.16;5025098;28;20375;-67
2023/02/10 02:48:31;;;;;;;;;;;;;;;-3.21;69.26;100581.81;5041160;28;20040;-67
2023/02/10 02:51:03;;;;;;;;;;;;;;;-3.21;69.32;100581.00;5024364;28;19972;-67
2023/02/10 02:53:33;;;;;;;;;;;;;;;-3.16;69.20;100581.31;5043682;28;20357;-67
2023/02/10 02:56:02;;;;;;;;;;;;;;;-3.19;69.35;100566.47;5041306;28;19929;-67
2023/02/10 02:58:33;;;;;;;;;;;;;;;-3.21;69.13;100576.47;5040963;28;19983;-67
2023/02/10 03:01:04;;;;;;;;;;;;;;;-3.28;69.23;100567.44;5026288;28;19936;-67
2023/02/10 03:03:33;;;;;;;;;;;;;;;-3.29;70.10;100561.22;5023623;28;20042;-67
2023/02/10 03:06:00;;;;;;;;;;;;;;;-3.26;70.52;100573.44;5013192;28;19930;-66
2023/02/10 03:08:26;;;;;;;;;;;;;;;-3.22;70.13;100553.38;5008472;28;19936;-66
2023/02/10 03:10:52;;;;;;;;;;;;;;;-3.22;69.93;100555.25;5006833;28;19933;-67
2023/02/10 03:13:18;;;;;;;;;;;;;;;-3.26;69.97;100562.75;5011695;28;19975;-67
2023/02/10 03:15:43;;;;;;;;;;;;;;;-3.26;69.93;100544.03;5006953;28;19930;-67
2023/02/10 03:18:09;;;;;;;;;;;;;;;-3.31;69.88;100541.84;5004666;28;19933;-67
2023/02/10 03:20:35;;;;;;;;;;;;;;;-3.31;70.00;100562.41;5006507;28;19929;-66
2023/02/10 03:23:02;;;;;;;;;;;;;;;-3.34;69.88;100538.69;5009644;28;19975;-67
2023/02/10 03:25:28;;;;;;;;;;;;;;;-3.31;70.14;100546.38;5024672;28;19929;-67
2023/02/10 03:27:54;;;;;;;;;;;;;;;-3.34;70.41;100546.72;5024996;28;19936;-67
2023/02/10 03:30:20;;;;;;;;;;;;;;;-3.27;70.23;100526.31;5025718;28;19929;-67
2023/02/10 03:32:46;;;;;;;;;;;;;;;-3.29;70.47;100517.63;5026829;28;19929;-67
2023/02/10 03:35:12;;;;;;;;;;;;;;;-3.32;70.64;100517.94;5007958;28;19929;-67
2023/02/10 03:37:37;;;;;;;;;;;;;;;-3.31;70.57;100512.41;5044268;28;19929;-67
2023/02/10 03:40:05;;;;;;;;;;;;;;;-3.32;70.59;100518.78;5027689;28;20185;-68
2023/02/10 03:42:31;;;;;;;;;;;;;;;-3.35;70.81;100508.41;5025805;28;19991;-67
2023/02/10 03:44:56;;;;;;;;;;;;;;;-3.34;70.69;100507.41;5025714;28;20354;-67
2023/02/10 03:47:22;;;;;;;;;;;;;;;-3.33;70.89;100501.06;5023433;28;19929;-67
2023/02/10 03:49:48;;;;;;;;;;;;;;;-3.27;70.80;100496.88;5041675;28;19955;-67
2023/02/10 03:52:14;;;;;;;;;;;;;;;-3.26;70.73;100479.81;5025987;28;20389;-67
2023/02/10 03:54:39;;;;;;;;;;;;;;;-3.23;70.68;100490.19;5024729;28;19929;-67
2023/02/10 03:57:07;;;;;;;;;;;;;;;-3.25;70.52;100473.47;5024746;28;19975;-68
2023/02/10 03:59:32;;;;;;;;;;;;;;;-3.25;70.58;100475.31;5004427;28;20409;-67
2023/02/10 04:01:58;;;;;;;;;;;;;;;-3.20;70.19;100467.63;5025637;28;19956;-67
2023/02/10 04:04:24;;;;;;;;;;;;;;;-3.19;70.22;100459.44;5024973;28;19929;-67
2023/02/10 04:06:50;;;;;;;;;;;;;;;-3.21;70.46;100468.63;5016874;28;19929;-67
2023/02/10 04:09:15;;;;;;;;;;;;;;;-3.19;70.76;100463.94;5014435;28;19964;-67
2023/02/10 04:11:41;;;;;;;;;;;;;;;-3.21;70.30;100458.75;5003527;28;19936;-67
2023/02/10 04:14:08;;;;;;;;;;;;;;;-3.27;70.53;100451.41;5018994;28;19959;-67
2023/02/10 04:16:34;;;;;;;;;;;;;;;-3.32;70.53;100464.44;5023509;28;19936;-67
2023/02/10 04:18:59;;;;;;;;;;;;;;;-3.34;70.93;100448.56;5024483;28;19929;-67
2023/02/10 04:21:25;;;;;;;;;;;;;;;-3.34;71.19;100451.22;5025378;28;19937;-66
2023/02/10 04:23:51;;;;;;;;;;;;;;;-3.25;71.22;100444.03;5026051;28;19929;-66
2023/02/10 04:26:17;;;;;;;;;;;;;;;-3.19;71.21;100443.38;5040579;28;19937;-66
2023/02/10 04:28:43;;;;;;;;;;;;;;;-3.18;71.18;100433.50;5007046;28;19936;-66
2023/02/10 04:31:10;;;;;;;;;;;;;;;-3.18;71.10;100449.56;5005652;28;19929;-66
2023/02/10 04:33:36;;;;;;;;;;;;;;;-3.18;70.59;100434.34;5003783;28;19944;-66
2023/02/10 04:36:04;;;;;;;;;;;;;;;-3.18;70.67;100428.16;5004596;28;19929;-66
2023/02/10 04:38:30;;;;;;;;;;;;;;;-3.22;70.72;100418.81;5010147;28;19933;-66
2023/02/10 04:40:56;;;;;;;;;;;;;;;-3.21;70.83;100420.47;5023524;28;20291;-66
2023/02/10 04:43:22;;;;;;;;;;;;;;;-3.26;70.91;100426.31;5024186;28;20415;-65
2023/02/10 04:45:48;;;;;;;;;;;;;;;-3.31;70.99;100436.69;5014238;28;19933;-66
2023/02/10 04:48:15;;;;;;;;;;;;;;;-3.35;71.32;100430.03;5023637;28;20339;-65
2023/02/10 04:50:41;;;;;;;;;;;;;;;-3.43;71.41;100431.69;5014169;28;19983;-66
2023/02/10 04:53:06;;;;;;;;;;;;;;;-3.44;71.92;100429.16;5025538;28;20528;-66
2023/02/10 04:55:32;;;;;;;;;;;;;;;-3.42;71.96;100430.69;5025864;28;20400;-65
2023/02/10 04:57:58;;;;;;;;;;;;;;;-3.43;71.89;100463.78;5025560;28;19929;-66
2023/02/10 05:00:24;;;;;;;;;;;;;;;-3.42;71.76;100427.19;5025523;28;19967;-66
2023/02/10 05:02:49;;;;;;;;;;;;;;;-3.49;71.82;100405.63;5022913;28;19929;-65
2023/02/10 05:05:17;;;;;;;;;;;;;;;-3.46;71.86;100436.53;5037809;28;19929;-65
2023/02/10 05:07:43;;;;;;;;;;;;;;;-3.54;71.84;100432.00;5025650;28;20393;-66
2023/02/10 05:10:08;;;;;;;;;;;;;;;-3.56;72.36;100426.00;5005251;28;19929;-66
2023/02/10 05:12:34;;;;;;;;;;;;;;;-3.51;72.40;100436.19;5022836;28;20405;-66
2023/02/10 05:15:00;;;;;;;;;;;;;;;-3.53;72.34;100420.31;5011708;28;19929;-67
2023/02/10 05:17:26;;;;;;;;;;;;;;;-3.53;72.22;100403.44;5021580;28;19965;-66
2023/02/10 05:19:51;;;;;;;;;;;;;;;-3.60;72.45;100406.75;5013110;28;20316;-65
2023/02/10 05:22:19;;;;;;;;;;;;;;;-3.53;72.46;100416.81;5019760;28;19956;-65
2023/02/10 05:24:44;;;;;;;;;;;;;;;-3.50;72.44;100401.28;5024694;28;20210;-66
2023/02/10 05:27:10;;;;;;;;;;;;;;;-3.49;72.29;100402.09;5014649;28;20036;-66
2023/02/10 05:29:36;;;;;;;;;;;;;;;-3.51;72.50;100404.09;5016116;28;21379;-65
2023/02/10 05:32:01;;;;;;;;;;;;;;;-3.54;72.68;100402.59;5023290;28;20381;-66
2023/02/10 05:34:27;;;;;;;;;;;;;;;-3.57;72.49;100417.16;5023976;28;20016;-65
2023/02/10 05:36:53;;;;;;;;;;;;;;;-3.61;72.83;100401.59;5001987;28;20471;-66
2023/02/10 05:39:23;;;;;;;;;;;;;;;-3.58;72.66;100394.09;5019708;28;19975;-66
2023/02/10 05:41:49;;;;;;;;;;;;;;;-3.63;72.77;100401.75;5011659;28;20364;-66
2023/02/10 05:44:14;;;;;;;;;;;;;;;-3.67;72.63;100388.88;5016459;28;19971;-66
2023/02/10 05:46:40;;;;;;;;;;;;;;;-3.65;72.80;100411.78;5004730;28;20308;-65
2023/02/10 05:49:06;;;;;;;;;;;;;;;-3.68;72.68;100369.34;5018077;28;19929;-66
2023/02/10 05:51:32;;;;;;;;;;;;;;;-3.72;72.89;100373.38;5046776;28;20420;-65
2023/02/10 05:53:57;;;;;;;;;;;;;;;-3.75;73.18;100427.13;5002318;28;19937;-66
2023/02/10 05:56:25;;;;;;;;;;;;;;;-3.79;73.11;100359.84;5016931;28;19933;-65
2023/02/10 05:58:50;;;;;;;;;;;;;;;-3.88;73.54;100350.97;5023104;28;19929;-67
2023/02/10 06:01:16;;;;;;;;;;;;;;;-3.76;73.73;100347.97;5018132;28;19980;-65
2023/02/10 06:03:42;;;;;;;;;;;;;;;-3.61;73.28;100356.97;5017201;28;20395;-66
2023/02/10 06:06:07;;;;;;;;;;;;;;;-3.50;72.85;100352.28;5023214;28;19936;-66
2023/02/10 06:08:33;;;;;;;;;;;;;;;-3.58;72.00;100361.16;5028297;28;19933;-65
2023/02/10 06:10:59;;;;;;;;;;;;;;;-3.69;72.40;100348.97;5015850;28;19929;-66
2023/02/10 06:13:26;;;;;;;;;;;;;;;-3.77;72.72;100333.78;5019775;28;20027;-66
2023/02/10 06:15:52;;;;;;;;;;;;;;;-3.86;73.21;100346.31;5020099;28;19929;-65
2023/02/10 06:18:17;;;;;;;;;;;;;;;-3.91;73.08;100332.59;5016084;28;19995;-66
2023/02/10 06:20:45;;;;;;;;;;;;;;;-4.02;73.37;100331.09;5017695;28;19939;-65
2023/02/10 06:23:10;;;;;;;;;;;;;;;-4.04;73.86;100350.97;5021013;28;19936;-66
2023/02/10 06:25:37;;;;;;;;;;;;;;;-4.07;74.00;100337.91;5015527;28;19929;-67
2023/02/10 06:28:03;;;;;;;;;;;;;;;-4.07;74.03;100333.44;5018156;28;19976;-67
2023/02/10 06:30:30;;;;;;;;;;;;;;;-4.01;73.87;100338.09;5018631;28;19973;-67
2023/02/10 06:32:56;;;;;;;;;;;;;;;-3.89;73.57;100322.59;5018746;28;19983;-67
2023/02/10 06:35:21;;;;;;;;;;;;;;;-3.84;73.01;100306.03;5021844;28;19929;-67
2023/02/10 06:37:47;;;;;;;;;;;;;;;-3.92;73.22;100304.19;5019836;28;20368;-65
2023/02/10 06:40:13;;;;;;;;;;;;;;;-3.97;73.28;100309.22;5036173;28;19929;-66
2023/02/10 06:42:39;;;;;;;;;;;;;;;-4.04;72.93;100294.88;5028785;28;19975;-65
2023/02/10 06:45:06;;;;;;;;;;;;;;;-4.05;73.44;100307.38;5019003;28;20063;-67
2023/02/10 06:47:33;;;;;;;;;;;;;;;-4.04;73.31;100303.69;5018883;28;20301;-65
2023/02/10 06:49:58;;;;;;;;;;;;;;;-3.98;72.85;100310.22;5015217;28;19929;-66
2023/02/10 06:52:30;;;;;;;;;;;;;;;-3.96;72.78;100294.84;4836777;28;10000075;-65
2023/02/10 06:54:55;;;;;;;;;;;;;;;-3.87;73.00;100268.97;5018955;28;19929;-67
2023/02/10 06:57:21;;;;;;;;;;;;;;;-3.71;72.70;100271.59;5014579;28;20382;-67
2023/02/10 06:59:47;;;;;;;;;;;;;;;-3.53;71.79;100251.03;5041750;28;19997;-67
2023/02/10 07:02:13;;;;;;;;;;;;;;;-3.43;71.01;100249.00;5018399;28;19936;-66
2023/02/10 07:04:40;;;;;;;;;;;;;;;-3.41;70.82;100209.56;5013779;28;19929;-67
2023/02/10 07:07:05;;;;;;;;;;;;;;;-3.39;70.72;100220.91;5018452;28;20613;-66
2023/02/10 07:09:31;;;;;;;;;;;;;;;-3.55;70.58;100216.44;5021708;28;19929;-65
2023/02/10 07:11:57;;;;;;;;;;;;;;;-3.48;70.77;100224.59;5016974;28;20039;-65
2023/02/10 07:14:23;;;;;;;;;;;;;;;-3.41;70.42;100212.22;5031965;28;20360;-67
2023/02/10 07:16:51;;;;;;;;;;;;;;;-3.35;70.51;100205.38;5024415;28;19933;-66
2023/02/10 07:19:18;;;;;;;;;;;;;;;-3.30;70.32;100186.94;4997533;28;19940;-67
2023/02/10 07:21:45;;;;;;;;;;;;;;;-3.30;70.37;100182.41;5001787;28;19930;-66
2023/02/10 07:24:10;;;;;;;;;;;;;;;-3.28;70.39;100193.78;5006015;28;20094;-66
2023/02/10 07:26:36;;;;;;;;;;;;;;;-3.29;70.39;100199.31;5012741;28;20430;-66
2023/02/10 07:29:02;;;;;;;;;;;;;;;-3.32;70.20;100167.56;5017675;28;20020;-67
2023/02/10 07:31:28;;;;;;;;;;;;;;;-3.32;69.95;100171.06;5007587;28;20024;-67
2023/02/10 07:33:54;;;;;;;;;;;;;;;-3.17;69.54;100173.00;5015242;28;19983;-66
2023/02/10 07:36:20;;;;;;;;;;;;;;;-3.08;68.92;100184.47;5016940;28;19967;-66
2023/02/10 07:38:47;;;;;;;;;;;;;;;-2.94;68.28;100175.69;5012932;28;20400;-66
2023/02/10 07:41:13;;;;;;;;;;;;;;;-2.88;68.01;100150.06;5018920;28;20048;-66
2023/02/10 07:43:38;;;;;;;;;;;;;;;-2.86;67.39;100142.69;5024553;28;20028;-67
2023/02/10 07:46:10;;;;;;;;;;;;;;;-2.81;67.24;100135.00;5019572;28;20368;-66
2023/02/10 07:48:36;;;;;;;;;;;;;;;-2.72;66.98;100152.63;5010450;28;19979;-66
2023/02/10 07:51:02;;;;;;;;;;;;;;;-2.58;66.31;100158.22;5013885;28;19985;-66
2023/02/10 07:53:27;;;;;;;;;;;;;;;-2.47;65.92;100147.09;5039838;28;20455;-67
2023/02/10 07:55:57;;;;;;;;;;;;;;;-2.21;65.66;100145.03;5014993;28;19929;-66
2023/02/10 07:58:23;;;;;;;;;;;;;;;-1.92;64.67;100128.13;5030017;28;20530;-67
2023/02/10 08:00:48;;;;;;;;;;;;;;;-1.73;63.38;100110.66;5014548;28;19933;-66
2023/02/10 08:03:14;;;;;;;;;;;;;;;-1.67;62.87;100106.41;5014348;28;19992;-67
2023/02/10 08:05:41;;;;;;;;;;;;;;;-1.47;62.82;100117.38;5021517;28;20389;-67
2023/02/10 08:08:07;;;;;;;;;;;;;;;-1.32;61.52;100117.34;5020881;28;19940;-66
2023/02/10 08:10:33;;;;;;;;;;;;;;;-1.37;61.51;100103.69;5017306;28;20375;-66
2023/02/10 08:13:00;;;;;;;;;;;;;;;-1.42;61.40;100106.06;5016569;28;19929;-66
2023/02/10 08:15:26;;;;;;;;;;;;;;;-1.42;60.71;100143.63;5017723;28;19952;-67
2023/02/10 08:17:52;;;;;;;;;;;;;;;-1.64;61.08;100134.69;5039163;28;19971;-66
2023/02/10 08:20:18;;;;;;;;;;;;;;;-1.73;61.68;100131.25;5007514;28;20429;-67
2023/02/10 08:22:43;;;;;;;;;;;;;;;-1.63;61.69;100147.91;5020031;28;19940;-66
2023/02/10 08:25:09;;;;;;;;;;;;;;;-1.58;61.21;100123.22;5013778;28;20383;-66
2023/02/10 08:27:35;;;;;;;;;;;;;;;-1.57;61.29;100114.16;5013280;28;19929;-66
2023/02/10 08:30:04;;;;;;;;;;;;;;;-1.51;60.42;100136.72;5016823;28;19929;-65
2023/02/10 08:32:30;;;;;;;;;;;;;;;-1.62;60.34;100128.13;5014604;28;19929;-65
2023/02/10 08:34:56;;;;;;;;;;;;;;;-1.86;61.15;100100.59;5019571;28;19929;-67
2023/02/10 08:37:22;;;;;;;;;;;;;;;-1.81;61.08;100126.81;5036100;28;20384;-65
2023/02/10 08:39:47;;;;;;;;;;;;;;;-1.61;60.71;100129.78;5017563;28;19948;-66
2023/02/10 08:42:13;;;;;;;;;;;;;;;-1.53;60.35;100111.94;5015034;28;20387;-66
2023/02/10 08:44:39;;;;;;;;;;;;;;;-1.46;60.55;100100.28;5015863;28;19937;-67
2023/02/10 08:47:06;;;;;;;;;;;;;;;-1.27;60.10;100094.47;5024058;28;19944;-66
2023/02/10 08:49:32;;;;;;;;;;;;;;;-0.10;56.51;100083.50;5022825;28;20023;-66
2023/02/10 08:51:59;;;;;;;;;;;;;;;-0.22;56.30;100092.09;5016129;28;19972;-66
2023/02/10 08:54:25;;;;;;;;;;;;;;;-0.33;57.10;100068.44;5015998;28;19929;-67
2023/02/10 08:56:53;;;;;;;;;;;;;;;0.89;54.25;100089.50;5022874;28;19939;-66
2023/02/10 08:59:18;;;;;;;;;;;;;;;1.83;50.72;100064.44;5020524;28;19929;-66
2023/02/10 09:01:44;;;;;;;;;;;;;;;1.32;51.56;100058.66;5019725;28;19929;-66
2023/02/10 09:04:11;;;;;;;;;;;;;;;0.98;52.33;100052.41;5014761;28;20031;-67
2023/02/10 09:06:43;;;;;;;;;;;;;;;0.61;53.57;100047.38;5003184;28;19929;-66
2023/02/10 09:09:08;;;;;;;;;;;;;;;0.33;53.99;100037.59;5014833;28;20023;-66
2023/02/10 09:11:34;;;;;;;;;;;;;;;0.18;54.32;100032.34;5011061;28;20480;-66
2023/02/10 09:14:00;;;;;;;;;;;;;;;0.09;54.85;100023.63;5005499;28;19929;-66
2023/02/10 09:16:26;;;;;;;;;;;;;;;0.06;54.52;100018.63;5019835;28;19933;-67
2023/02/10 09:18:52;;;;;;;;;;;;;;;-0.12;54.65;100004.91;5021176;28;19929;-66
2023/02/10 09:21:19;;;;;;;;;;;;;;;-0.14;54.66;100026.59;5020844;28;20059;-66
2023/02/10 09:23:45;;;;;;;;;;;;;;;-0.26;54.64;100010.22;5028692;28;19972;-66
2023/02/10 09:26:10;;;;;;;;;;;;;;;-0.20;54.63;99997.84;5041690;28;19968;-66
2023/02/10 09:28:36;;;;;;;;;;;;;;;-0.17;54.28;100000.94;5021602;28;20453;-67
2023/02/10 09:31:05;;;;;;;;;;;;;;;-0.07;54.24;99997.91;5025347;28;20332;-66
2023/02/10 09:33:30;;;;;;;;;;;;;;;0.06;53.33;99969.41;5017895;28;19935;-66
2023/02/10 09:35:56;;;;;;;;;;;;;;;0.06;53.48;99982.84;5015668;28;19929;-67
2023/02/10 09:38:23;;;;;;;;;;;;;;;-0.12;53.29;99970.78;5020673;28;19929;-66
2023/02/10 09:40:54;;;;;;;;;;;;;;;-0.39;53.91;99964.44;5018590;28;19940;-67
2023/02/10 09:43:27;;;;;;;;;;;;;;;-0.62;54.77;99960.19;5018274;28;20028;-67
2023/02/10 09:45:59;;;;;;;;;;;;;;;-0.83;55.04;99935.06;5019204;28;20253;-67
2023/02/10 09:48:29;;;;;;;;;;;;;;;-0.94;55.88;99939.13;5018455;28;19930;-66
2023/02/10 09:50:57;;;;;;;;;;;;;;;-1.13;56.34;99921.81;5018393;28;19929;-67
2023/02/10 09:53:27;;;;;;;;;;;;;;;-1.22;56.64;99933.75;5020715;28;19929;-67
2023/02/10 09:55:55;;;;;;;;;;;;;;;-1.24;56.83;99928.56;5017822;28;20489;-67
2023/02/10 09:58:24;;;;;;;;;;;;;;;-1.17;56.57;99915.19;5018494;28;19936;-66
2023/02/10 10:00:54;;;;;;;;;;;;;;;-1.04;56.03;99927.88;5027362;28;20036;-66
2023/02/10 10:03:23;;;;;;;;;;;;;;;-1.00;55.69;99956.81;5016936;28;19937;-66
2023/02/10 10:05:55;;;;;;;;;;;;;;;-0.98;55.54;99934.31;5024913;28;19933;-67
2023/02/10 10:08:24;;;;;;;;;;;;;;;-0.91;55.83;99940.59;5025452;28;19952;-66
2023/02/10 10:10:51;;;;;;;;;;;;;;;-0.86;55.38;99968.50;5020014;28;19932;-65
2023/02/10 10:13:20;;;;;;;;;;;;;;;-0.84;55.08;99946.81;5028165;28;19936;-66
2023/02/10 10:16:00;;;;;;;;;;;;;;;-0.81;55.04;99949.09;5005998;28;19929;-67
2023/02/10 10:18:30;;;;;;;;;;;;;;;-0.80;55.04;99941.91;5018016;28;19930;-66
2023/02/10 10:21:00;;;;;;;;;;;;;;;-0.79;55.14;99933.63;5017574;28;19936;-67
2023/02/10 10:23:34;;;;;;;;;;;;;;;-0.74;54.61;99944.63;5020952;28;20502;-66
2023/02/10 10:26:16;;;;;;;;;;;;;;;-0.76;54.05;99952.06;5020461;28;20517;-66
2023/02/10 10:28:53;;;;;;;;;;;;;;;-0.76;53.88;99940.47;5015908;28;20020;-67
2023/02/10 10:31:21;;;;;;;;;;;;;;;-0.76;54.03;99927.03;5023149;28;19977;-66
2023/02/10 10:33:50;;;;;;;;;;;;;;;-0.76;53.90;99917.16;5016781;28;19933;-66
2023/02/10 10:36:17;;;;;;;;;;;;;;;-0.75;54.13;99912.59;5020068;28;21219;-66
2023/02/10 10:38:45;;;;;;;;;;;;;;;-0.68;54.18;99886.63;5017926;28;19980;-66
2023/02/10 10:41:14;;;;;;;;;;;;;;;-0.67;53.68;99879.38;5015303;28;19965;-66
2023/02/10 10:43:44;;;;;;;;;;;;;;;-0.69;53.60;99878.75;5019064;28;20019;-66
2023/02/10 10:46:11;;;;;;;;;;;;;;;-0.73;53.70;99879.16;5010692;28;19937;-66
2023/02/10 10:48:40;;;;;;;;;;;;;;;-0.70;53.99;99867.19;5019898;28;19951;-66
2023/02/10 10:51:06;;;;;;;;;;;;;;;-0.61;53.83;99860.59;5007634;28;19929;-66
2023/02/10 10:53:37;;;;;;;;;;;;;;;-0.54;53.65;99868.69;5017722;28;19952;-65
2023/02/10 10:56:05;;;;;;;;;;;;;;;-0.53;52.94;99859.59;5016864;28;19936;-66
2023/02/10 10:58:35;;;;;;;;;;;;;;;-0.66;52.75;99864.91;5017784;28;20314;-66
2023/02/10 11:01:01;;;;;;;;;;;;;;;-0.80;53.01;99893.56;5012583;28;19929;-65
2023/02/10 11:03:28;;;;;;;;;;;;;;;-0.91;52.79;99852.00;5013894;28;19930;-66
2023/02/10 11:05:58;;;;;;;;;;;;;;;-0.90;53.06;99859.03;5016218;28;19929;-66
2023/02/10 11:08:27;;;;;;;;;;;;;;;-0.86;52.97;99836.09;5016865;28;19951;-65
2023/02/10 11:10:53;;;;;;;;;;;;;;;-0.83;52.50;99851.00;5019832;28;19929;-66
2023/02/10 11:13:20;;;;;;;;;;;;;;;-0.94;52.34;99849.69;5002274;28;19930;-65
2023/02/10 11:15:48;;;;;;;;;;;;;;;-0.95;52.76;99837.28;5040434;28;19936;-65
2023/02/10 11:18:16;;;;;;;;;;;;;;;-0.86;52.66;99814.63;5020243;28;19929;-65
2023/02/10 11:20:51;;;;;;;;;;;;;;;-0.83;51.76;99841.06;5020376;28;19933;-66
2023/02/10 11:23:17;;;;;;;;;;;;;;;-0.85;51.70;99808.22;5018062;28;19930;-66
2023/02/10 11:25:45;;;;;;;;;;;;;;;-0.85;51.91;99813.59;5024039;28;19929;-66
2023/02/10 11:28:16;;;;;;;;;;;;;;;-0.80;52.42;99816.50;5012272;28;19929;-67
2023/02/10 11:30:42;;;;;;;;;;;;;;;-0.76;52.28;99819.63;5013377;28;19929;-67
2023/02/10 11:33:18;;;;;;;;;;;;;;;-0.77;52.30;99794.66;5007859;28;20352;-67
2023/02/10 11:35:46;;;;;;;;;;;;;;;-0.74;52.47;99804.97;5006501;28;19983;-66
2023/02/10 11:38:16;;;;;;;;;;;;;;;-0.76;51.86;99796.31;5013812;28;20031;-67
2023/02/10 11:40:48;;;;;;;;;;;;;;;-0.74;51.89;99779.97;5012924;28;20470;-67
2023/02/10 11:43:15;;;;;;;;;;;;;;;-0.73;51.69;99782.47;5008904;28;19933;-67
2023/02/10 11:45:50;;;;;;;;;;;;;;;-0.76;51.27;99765.91;5010752;28;19935;-66
2023/02/10 11:48:18;;;;;;;;;;;;;;;-0.75;51.53;99784.53;5012167;28;19977;-66
2023/02/10 11:50:44;;;;;;;;;;;;;;;-0.71;51.79;99784.94;5011930;28;19929;-67
2023/02/10 11:53:16;;;;;;;;;;;;;;;-0.51;50.97;99771.56;5018126;28;19929;-67
2023/02/10 11:55:52;;;;;;;;;;;;;;;-0.52;51.14;99787.91;5021369;28;19975;-66
2023/02/10 12:01:17;;;;;;;;;;;;;;;-0.57;50.78;99775.91;5023511;28;19930;-66
2023/02/10 12:03:54;;;;;;;;;;;;;;;-0.55;50.69;99772.19;5021577;28;19929;-66
2023/02/10 12:06:23;;;;;;;;;;;;;;;-0.31;50.29;99752.00;5026514;28;19929;-67
2023/02/10 12:08:53;;;;;;;;;;;;;;;-0.20;49.71;99756.75;5024952;28;19933;-66
2023/02/10 12:11:24;;;;;;;;;;;;;;;-0.24;49.12;99762.75;5007813;28;20300;-66
2023/02/10 12:13:55;;;;;;;;;;;;;;;0.25;48.22;99748.09;5022067;28;19933;-66
2023/02/10 12:16:24;;;;;;;;;;;;;;;0.79;46.81;99749.88;5017723;28;19944;-66
2023/02/10 12:18:56;;;;;;;;;;;;;;;1.07;46.14;99760.34;5015802;28;20118;-66
2023/02/10 12:21:43;;;;;;;;;;;;;;;1.05;46.04;99732.78;5003649;28;21665;-66
2023/02/10 12:24:14;;;;;;;;;;;;;;;0.87;45.85;99714.63;5011666;28;19936;-67
2023/02/10 12:26:43;;;;;;;;;;;;;;;0.76;46.25;99726.88;5013845;28;19929;-67
2023/02/10 12:29:15;;;;;;;;;;;;;;;0.49;46.49;99726.94;5014573;28;19929;-67
2023/02/10 12:31:46;;;;;;;;;;;;;;;0.69;46.62;99702.69;5025525;28;20217;-65
2023/02/10 12:34:24;;;;;;;;;;;;;;;0.87;45.85;99697.66;5007846;28;19935;-66
2023/02/10 12:36:54;;;;;;;;;;;;;;;0.50;46.64;99692.81;5007888;28;20052;-66
2023/02/10 12:39:22;;;;;;;;;;;;;;;0.32;47.71;99688.06;5025444;28;20392;-65
2023/02/10 12:41:52;;;;;;;;;;;;;;;0.16;47.83;99683.94;5015706;28;19933;-66
2023/02/10 12:44:33;;;;;;;;;;;;;;;-0.14;48.17;99690.59;5003216;28;19991;-66
2023/02/10 12:47:03;;;;;;;;;;;;;;;-0.40;48.99;99686.84;5010740;28;19963;-66